Time;durP1;ratioP1;P1;durP2;ratioP2;P2;SDS_P1;SDS_P2;PMS_P1;PMS_P2;Temp;Humidity;BMP_temperature;BMP_pressure;BME280_temperature;BME280_humidity;BME280_pressure;Samples;Min_cycle;Max_cycle;Signal;HPM_P1;HPM_P2
2021/05/26 00:03:04;;;;;;;3.33;3.13;;;;;;;10.02;72.90;100906.03;6079016;29;21225;-50
2021/05/26 00:06:25;;;;;;;4.57;3.83;;;;;;;9.66;73.46;100906.19;6071756;29;20248;-47
2021/05/26 00:09:46;;;;;;;3.87;3.57;;;;;;;9.90;73.10;100896.53;6077471;29;20233;-52
2021/05/26 00:13:06;;;;;;;3.10;2.90;;;;;;;9.87;73.38;100888.78;6079688;29;20260;-46
2021/05/26 00:16:27;;;;;;;3.30;3.10;;;;;;;10.04;71.93;100889.53;6071551;29;20245;-51
2021/05/26 00:19:47;;;;;;;4.03;3.63;;;;;;;10.02;73.01;100891.28;6074930;29;20229;-49
2021/05/26 00:23:08;;;;;;;3.70;3.40;;;;;;;9.91;72.79;100887.03;6071054;29;20240;-50
2021/05/26 00:26:30;;;;;;;4.10;3.73;;;;;;;9.65;74.18;100891.47;6075660;29;20264;-47
2021/05/26 00:29:50;;;;;;;4.17;3.37;;;;;;;10.28;72.12;100881.59;6068849;29;20251;-49
2021/05/26 00:33:11;;;;;;;4.57;4.07;;;;;;;9.91;72.95;100880.06;6072354;29;20229;-47
2021/05/26 00:36:32;;;;;;;4.90;4.50;;;;;;;9.76;74.61;100874.94;6068893;29;20236;-50
2021/05/26 00:39:52;;;;;;;4.87;4.57;;;;;;;9.68;74.83;100874.13;6071675;29;20240;-49
2021/05/26 00:43:16;;;;;;;5.83;5.43;;;;;;;9.77;74.88;100868.84;6076272;29;20268;-49
2021/05/26 00:46:41;;;;;;;5.43;5.03;;;;;;;9.88;74.49;100869.69;6069545;29;20240;-50
2021/05/26 00:50:02;;;;;;;5.20;4.80;;;;;;;9.48;76.36;100867.28;6073698;29;20242;-51
2021/05/26 00:53:27;;;;;;;5.50;5.10;;;;;;;10.07;74.72;100865.22;6066390;29;20597;-53
2021/05/26 00:56:49;;;;;;;5.87;5.30;;;;;;;9.48;76.30;100869.88;6072854;29;20240;-47
2021/05/26 01:00:13;;;;;;;6.20;5.60;;;;;;;9.95;75.35;100866.19;6067309;29;20233;-47
2021/05/26 01:03:35;;;;;;;5.83;5.30;;;;;;;9.74;76.20;100863.69;6076279;29;20901;-49
2021/05/26 01:06:57;;;;;;;6.20;5.70;;;;;;;9.81;75.31;100866.25;6073408;29;20233;-46
2021/05/26 01:10:19;;;;;;;6.03;5.63;;;;;;;9.95;75.22;100868.78;6093205;29;20236;-50
2021/05/26 01:13:49;;;;;;;5.80;5.40;;;;;;;10.05;74.97;100864.38;6077367;29;20594;-50
2021/05/26 01:17:12;;;;;;;6.33;5.73;;;;;;;10.39;73.53;100864.16;6076724;29;20244;-50
2021/05/26 01:20:32;;;;;;;7.40;6.80;;;;;;;10.09;74.51;100865.22;6073052;29;20236;-51
2021/05/26 01:23:53;;;;;;;6.50;6.00;;;;;;;10.12;74.45;100866.09;6072605;29;20523;-51
2021/05/26 01:27:27;;;;;;;6.70;6.20;;;;;;;9.84;75.24;100862.75;6079612;29;20240;-50
2021/05/26 01:30:49;;;;;;;9.37;8.67;;;;;;;9.84;74.75;100860.16;6083990;29;20236;-50
2021/05/26 01:34:11;;;;;;;8.93;8.23;;;;;;;10.08;74.11;100853.09;6078154;29;20237;-47
2021/05/26 01:37:38;;;;;;;8.70;8.00;;;;;;;10.23;74.81;100847.78;6082422;29;20776;-48
2021/05/26 01:41:02;;;;;;;8.87;8.20;;;;;;;9.87;76.26;100841.94;6068834;29;20442;-50
2021/05/26 01:44:25;;;;;;;11.23;10.10;;;;;;;9.80;76.30;100848.06;6090679;29;20248;-52
2021/05/26 01:47:53;;;;;;;10.97;10.07;;;;;;;9.88;75.80;100846.25;6075754;29;20231;-51
2021/05/26 01:51:13;;;;;;;11.60;10.70;;;;;;;10.05;74.93;100844.41;6077458;29;20730;-51
2021/05/26 01:54:36;;;;;;;11.77;10.77;;;;;;;10.08;75.09;100847.88;6075517;29;20236;-49
2021/05/26 01:57:58;;;;;;;11.33;10.33;;;;;;;10.05;75.09;100849.63;6077692;29;20236;-48
2021/05/26 02:01:27;;;;;;;10.97;10.10;;;;;;;10.37;73.61;100843.38;6076259;29;20252;-48
2021/05/26 02:04:51;;;;;;;12.07;11.17;;;;;;;9.93;75.34;100839.31;6078957;29;20240;-52
2021/05/26 02:08:13;;;;;;;11.37;10.37;;;;;;;10.09;75.47;100836.59;6092370;29;20616;-48
2021/05/26 02:15:16;;;;;;;12.43;11.23;;;;;;;10.29;74.24;100836.47;6088382;29;20920;-50
2021/05/26 02:18:37;;;;;;;12.10;11.13;;;;;;;9.83;75.68;100822.91;6076292;29;20252;-49
2021/05/26 02:21:59;;;;;;;11.13;10.17;;;;;;;10.28;74.03;100832.16;6039908;29;20242;-51
2021/05/26 02:25:22;;;;;;;12.67;11.57;;;;;;;10.31;74.13;100830.38;6090632;29;20252;-50
2021/05/26 02:28:43;;;;;;;12.13;11.03;;;;;;;10.27;74.16;100826.06;6078663;29;20523;-49
2021/05/26 02:32:06;;;;;;;11.80;10.80;;;;;;;9.81;76.14;100818.59;6078328;29;20856;-50
2021/05/26 02:35:37;;;;;;;13.37;12.17;;;;;;;10.04;74.99;100821.91;6090411;29;20244;-49
2021/05/26 02:38:57;;;;;;;11.50;10.40;;;;;;;10.35;73.71;100824.31;6082554;29;20252;-50
2021/05/26 02:42:18;;;;;;;11.93;10.93;;;;;;;10.21;73.78;100823.50;6079323;29;20260;-48
2021/05/26 02:45:39;;;;;;;11.37;10.40;;;;;;;9.85;75.28;100821.16;6077288;29;20236;-51
2021/05/26 02:49:02;;;;;;;10.47;9.57;;;;;;;10.33;73.01;100823.47;6073933;29;20232;-47
2021/05/26 02:52:22;;;;;;;10.77;9.83;;;;;;;9.98;74.33;100819.34;6070564;29;20319;-51
2021/05/26 02:55:47;;;;;;;11.23;10.30;;;;;;;9.83;75.25;100816.84;6076308;29;20724;-49
2021/05/26 02:59:25;;;;;;;9.90;9.03;;;;;;;9.99;74.31;100812.38;6075255;29;20813;-46
2021/05/26 03:03:05;;;;;;;9.90;8.90;;;;;;;9.94;74.56;100815.00;6071946;29;20786;-48
2021/05/26 03:06:27;;;;;;;10.67;9.77;;;;;;;9.99;74.38;100813.25;6076829;29;20264;-48
2021/05/26 03:09:48;;;;;;;9.07;8.37;;;;;;;9.89;74.49;100824.59;6084073;29;20237;-49
2021/05/26 03:13:09;;;;;;;9.80;9.00;;;;;;;10.14;73.43;100816.59;6073030;29;21667;-53
2021/05/26 03:16:30;;;;;;;8.27;7.47;;;;;;;10.00;73.89;100825.41;6079221;29;20710;-52
2021/05/26 03:19:50;;;;;;;9.03;8.13;;;;;;;9.99;74.12;100813.25;6074247;29;20258;-49
2021/05/26 03:23:30;;;;;;;8.50;7.70;;;;;;;9.98;74.62;100814.13;6081462;29;20305;-48
2021/05/26 03:27:21;;;;;;;8.17;7.47;;;;;;;10.04;74.75;100816.69;6063745;29;20248;-51
2021/05/26 03:30:42;;;;;;;10.63;9.53;;;;;;;9.79;76.02;100817.69;6072980;29;20273;-52
2021/05/26 03:34:03;;;;;;;11.23;10.10;;;;;;;9.88;75.92;100807.25;6072273;29;20837;-50
2021/05/26 03:37:24;;;;;;;12.00;11.00;;;;;;;9.96;76.33;100802.84;6075113;29;20237;-51
2021/05/26 03:40:47;;;;;;;13.13;11.87;;;;;;;9.74;76.80;100809.94;6069848;29;21169;-47
2021/05/26 03:44:09;;;;;;;11.23;10.20;;;;;;;9.93;75.32;100802.03;6069044;29;20236;-49
2021/05/26 03:47:29;;;;;;;11.27;10.27;;;;;;;9.90;75.94;100808.09;6091856;29;20279;-50
2021/05/26 03:50:53;;;;;;;12.33;11.13;;;;;;;9.84;75.90;100806.41;6067863;29;20248;-49
2021/05/26 03:54:13;;;;;;;14.23;11.60;;;;;;;10.11;75.07;100801.03;6073163;29;20237;-50
2021/05/26 03:57:39;;;;;;;11.30;10.17;;;;;;;9.99;75.24;100799.38;6071596;29;20385;-47
2021/05/26 04:00:59;;;;;;;11.70;10.13;;;;;;;10.09;74.74;100797.56;6071458;29;20568;-47
2021/05/26 04:04:21;;;;;;;11.43;10.43;;;;;;;10.08;74.33;100806.25;6072757;29;20244;-49
2021/05/26 04:07:43;;;;;;;12.63;11.33;;;;;;;10.09;73.88;100805.38;6071120;29;20244;-50
2021/05/26 04:11:05;;;;;;;10.23;9.17;;;;;;;10.13;73.81;100804.47;6067496;29;20237;-48
2021/05/26 04:14:53;;;;;;;10.37;9.47;;;;;;;10.14;72.97;100798.38;6075518;29;20236;-48
2021/05/26 04:18:13;;;;;;;12.83;10.03;;;;;;;10.25;72.28;100804.38;6082304;29;20236;-53
2021/05/26 04:21:38;;;;;;;10.40;9.57;;;;;;;10.36;72.81;100805.19;6074984;29;20240;-51
2021/05/26 04:25:00;;;;;;;11.50;10.40;;;;;;;10.01;73.65;100793.28;6072712;29;20241;-46
2021/05/26 04:28:21;;;;;;;9.60;8.63;;;;;;;9.89;73.29;100790.78;6071523;29;20241;-49
2021/05/26 04:31:42;;;;;;;13.57;10.13;;;;;;;10.22;73.05;100779.25;6074359;29;20241;-52
2021/05/26 04:35:04;;;;;;;14.40;11.83;;;;;;;10.40;72.74;100788.66;6076127;29;20326;-52
2021/05/26 04:38:26;;;;;;;10.23;9.33;;;;;;;10.33;72.06;100788.72;6078382;29;20743;-55
2021/05/26 04:41:47;;;;;;;10.63;9.53;;;;;;;10.26;72.58;100785.31;6066032;29;20252;-52
2021/05/26 04:45:08;;;;;;;11.20;10.13;;;;;;;10.12;72.75;100788.00;6071467;29;20249;-53
2021/05/26 04:48:30;;;;;;;10.73;9.70;;;;;;;10.46;71.01;100781.69;6071947;29;20239;-54
2021/05/26 04:51:51;;;;;;;10.63;9.60;;;;;;;10.22;71.89;100794.00;6078656;29;20244;-50
2021/05/26 04:55:12;;;;;;;10.00;9.10;;;;;;;10.60;70.04;100785.00;6072889;29;20228;-48
2021/05/26 04:58:33;;;;;;;10.23;9.23;;;;;;;10.32;70.41;100795.69;6070304;29;20260;-49
2021/05/26 05:01:53;;;;;;;10.87;9.77;;;;;;;10.30;71.09;100796.56;6069603;29;20244;-52
2021/05/26 05:05:15;;;;;;;10.47;9.43;;;;;;;9.98;71.13;100789.84;6069055;29;20622;-49
2021/05/26 05:08:37;;;;;;;10.60;9.67;;;;;;;10.48;70.31;100790.34;6065733;29;20241;-51
2021/05/26 05:11:58;;;;;;;10.17;9.17;;;;;;;10.33;70.57;100792.22;6069601;29;20235;-50
2021/05/26 05:15:18;;;;;;;10.83;9.93;;;;;;;10.88;68.35;100790.81;6082818;29;20233;-50
2021/05/26 05:18:39;;;;;;;9.10;8.17;;;;;;;10.66;68.86;100795.38;6068609;29;20331;-52
2021/05/26 05:22:00;;;;;;;9.33;8.30;;;;;;;10.44;68.71;100785.16;6056471;29;20366;-51
2021/05/26 05:25:21;;;;;;;9.47;8.57;;;;;;;10.70;68.28;100780.56;6068779;29;20240;-46
2021/05/26 05:28:42;;;;;;;8.87;7.83;;;;;;;10.26;69.02;100795.72;6073982;29;20232;-52
2021/05/26 05:32:03;;;;;;;12.30;9.70;;;;;;;10.32;69.10;100789.63;6071804;29;20239;-46
2021/05/26 05:35:23;;;;;;;10.10;9.07;;;;;;;10.66;68.17;100771.94;6075863;29;20248;-47
2021/05/26 05:38:45;;;;;;;10.03;7.90;;;;;;;10.62;68.63;100765.03;6074041;29;20244;-50
2021/05/26 05:42:05;;;;;;;9.73;8.80;;;;;;;10.71;67.11;100767.53;6062518;29;20240;-52
2021/05/26 05:45:26;;;;;;;10.63;9.67;;;;;;;10.84;68.52;100768.28;6080930;29;20343;-47
2021/05/26 05:48:46;;;;;;;10.43;9.57;;;;;;;10.64;68.91;100771.97;6074213;29;21297;-52
2021/05/26 05:52:08;;;;;;;11.07;10.07;;;;;;;10.95;68.23;100765.53;6072860;29;20560;-49
2021/05/26 05:55:30;;;;;;;11.50;10.50;;;;;;;10.92;68.26;100768.22;6073892;29;20232;-50
2021/05/26 05:58:51;;;;;;;11.00;10.10;;;;;;;10.89;67.71;100770.84;6074351;29;20240;-53
2021/05/26 06:02:12;;;;;;;11.30;10.40;;;;;;;10.50;68.62;100768.63;6065320;29;20245;-49
2021/05/26 06:05:32;;;;;;;10.67;9.67;;;;;;;10.68;67.31;100766.72;6058106;29;20320;-52
2021/05/26 06:08:52;;;;;;;10.40;9.47;;;;;;;10.62;66.36;100767.63;6073298;29;20238;-50
2021/05/26 06:12:14;;;;;;;10.33;8.30;;;;;;;11.27;65.46;100757.34;6067634;29;20244;-53
2021/05/26 06:15:35;;;;;;;10.37;9.37;;;;;;;10.93;67.40;100756.88;6075546;29;20340;-50
2021/05/26 06:18:55;;;;;;;9.57;8.87;;;;;;;10.97;67.00;100740.34;6074915;29;20531;-52
2021/05/26 06:22:16;;;;;;;11.43;10.30;;;;;;;11.14;67.56;100741.00;6063054;29;20236;-53
2021/05/26 06:25:38;;;;;;;11.60;10.60;;;;;;;11.31;66.56;100752.97;6076150;29;20252;-51
2021/05/26 06:28:59;;;;;;;11.93;10.83;;;;;;;10.94;67.65;100745.59;6091733;29;20241;-52
2021/05/26 06:32:20;;;;;;;11.03;10.07;;;;;;;10.83;68.66;100746.56;6074514;29;20257;-53
2021/05/26 06:35:40;;;;;;;10.80;9.70;;;;;;;10.75;68.79;100753.59;6069487;29;20505;-51
2021/05/26 06:39:01;;;;;;;11.03;10.13;;;;;;;10.97;69.01;100737.72;6068559;29;20240;-53
2021/05/26 06:42:22;;;;;;;12.00;9.93;;;;;;;11.00;68.39;100742.91;6077797;29;20328;-53
2021/05/26 06:45:44;;;;;;;12.00;10.83;;;;;;;11.07;68.53;100738.47;6088571;29;20244;-53
2021/05/26 06:49:04;;;;;;;11.07;10.07;;;;;;;11.41;67.99;100728.47;6074042;29;20228;-51
2021/05/26 06:52:25;;;;;;;11.27;10.23;;;;;;;11.16;69.01;100723.59;6070593;29;20236;-51
2021/05/26 06:55:45;;;;;;;11.73;10.53;;;;;;;11.31;69.67;100725.13;6070745;29;20240;-55
2021/05/26 06:59:06;;;;;;;10.93;9.93;;;;;;;10.68;70.99;100748.47;6077043;29;20618;-54
2021/05/26 07:02:28;;;;;;;8.40;7.80;;;;;;;10.51;69.86;100748.66;6071999;29;20232;-55
2021/05/26 07:05:48;;;;;;;8.17;7.50;;;;;;;10.73;70.55;100731.06;6065963;29;20244;-48
2021/05/26 07:09:08;;;;;;;8.37;7.60;;;;;;;10.46;70.56;100730.47;6055755;29;20363;-52
2021/05/26 07:12:30;;;;;;;7.93;7.20;;;;;;;10.38;71.01;100734.91;6064602;29;20237;-53
2021/05/26 07:15:50;;;;;;;7.47;6.97;;;;;;;10.90;69.96;100726.53;6066188;29;20492;-54
2021/05/26 07:19:12;;;;;;;7.63;7.03;;;;;;;11.62;67.30;100722.94;6063907;29;20258;-50
2021/05/26 07:22:33;;;;;;;7.03;6.40;;;;;;;11.23;68.84;100729.59;6075235;29;20336;-50
2021/05/26 07:25:53;;;;;;;8.53;7.53;;;;;;;11.16;70.02;100717.53;6064417;29;20327;-49
2021/05/26 07:29:14;;;;;;;8.07;6.60;;;;;;;11.04;69.66;100723.75;6066360;29;20240;-53
2021/05/26 07:32:34;;;;;;;6.30;5.47;;;;;;;11.61;67.49;100726.47;6059080;29;20240;-49
2021/05/26 07:35:55;;;;;;;5.50;5.00;;;;;;;11.73;66.99;100721.91;6069745;29;20236;-51
2021/05/26 07:39:16;;;;;;;5.70;5.27;;;;;;;11.12;69.19;100715.84;6070999;29;20224;-55
2021/05/26 07:42:36;;;;;;;7.33;6.63;;;;;;;11.35;68.69;100725.97;6066736;29;20228;-52
2021/05/26 07:45:57;;;;;;;6.07;5.30;;;;;;;11.65;66.81;100713.34;6068545;29;20244;-54
2021/05/26 07:49:18;;;;;;;6.00;5.50;;;;;;;11.61;68.24;100720.34;6066746;29;20872;-51
2021/05/26 07:52:39;;;;;;;6.63;6.03;;;;;;;11.14;69.42;100714.94;6072647;29;20244;-53
2021/05/26 07:56:00;;;;;;;6.03;5.53;;;;;;;10.84;70.30;100724.84;6072839;29;20248;-54
2021/05/26 07:59:20;;;;;;;6.50;6.00;;;;;;;10.82;70.88;100720.56;6070026;29;20640;-52
2021/05/26 08:02:41;;;;;;;7.20;6.60;;;;;;;10.71;72.08;100725.03;6074915;29;20243;-49
2021/05/26 08:06:01;;;;;;;8.17;7.47;;;;;;;10.97;72.58;100715.16;6061762;29;20243;-51
2021/05/26 08:09:22;;;;;;;10.83;9.60;;;;;;;10.90;72.61;100704.84;6064552;29;20340;-53
2021/05/26 08:12:43;;;;;;;13.40;12.30;;;;;;;11.17;72.88;100709.69;6067384;29;20244;-55
2021/05/26 08:16:04;;;;;;;12.23;11.13;;;;;;;10.93;74.16;100702.16;6067667;29;20244;-52
2021/05/26 08:19:24;;;;;;;14.60;13.03;;;;;;;11.19;74.22;100702.72;6074011;29;20232;-54
2021/05/26 08:22:44;;;;;;;14.03;12.83;;;;;;;10.71;74.80;100689.41;6058751;29;20351;-50
2021/05/26 08:26:07;;;;;;;15.10;13.57;;;;;;;10.71;75.00;100688.56;6067105;29;20241;-54
2021/05/26 08:29:31;;;;;;;16.27;14.13;;;;;;;10.79;74.32;100698.00;6076294;29;20241;-49
2021/05/26 08:32:51;;;;;;;18.00;16.40;;;;;;;10.82;74.89;100691.91;6064345;29;20240;-49
2021/05/26 08:36:11;;;;;;;15.23;13.83;;;;;;;11.04;73.05;100687.28;6065333;29;20232;-51
2021/05/26 08:39:35;;;;;;;18.77;16.07;;;;;;;10.94;73.85;100693.50;6076491;29;20241;-52
2021/05/26 08:42:58;;;;;;;18.97;14.57;;;;;;;10.96;73.62;100678.69;6071176;29;20327;-51
2021/05/26 08:46:21;;;;;;;16.33;14.73;;;;;;;11.03;72.77;100669.91;6069691;29;20248;-54
2021/05/26 08:49:44;;;;;;;16.50;15.03;;;;;;;11.98;70.53;100686.78;6065340;29;20240;-49
2021/05/26 08:53:04;;;;;;;18.10;15.30;;;;;;;12.49;68.51;100674.56;6070719;29;20252;-53
2021/05/26 08:56:25;;;;;;;16.50;14.97;;;;;;;12.22;68.64;100668.97;6066921;29;20241;-50
2021/05/26 08:59:46;;;;;;;14.53;13.17;;;;;;;11.69;69.65;100670.69;6067345;29;20233;-52
2021/05/26 09:03:07;;;;;;;16.57;13.93;;;;;;;12.20;67.97;100683.78;6057420;29;20331;-49
2021/05/26 09:06:42;;;;;;;14.63;12.73;;;;;;;12.61;66.22;100659.50;6063647;29;20331;-52
2021/05/26 09:10:06;;;;;;;12.57;11.23;;;;;;;12.90;65.32;100665.03;6062140;29;20763;-52
2021/05/26 09:13:31;;;;;;;12.97;11.73;;;;;;;12.37;65.77;100662.59;6068463;29;20225;-50
2021/05/26 09:16:54;;;;;;;14.03;10.57;;;;;;;12.15;65.93;100685.59;6067899;29;20232;-52
2021/05/26 09:20:23;;;;;;;10.00;9.00;;;;;;;11.91;65.57;100676.47;6069150;29;20237;-53
2021/05/26 09:23:43;;;;;;;9.07;8.37;;;;;;;12.30;63.82;100659.22;6070489;29;20591;-52
2021/05/26 09:27:05;;;;;;;8.57;7.87;;;;;;;12.30;63.23;100666.19;6060066;29;20240;-51
2021/05/26 09:30:31;;;;;;;11.60;10.00;;;;;;;12.73;62.48;100668.81;6067673;29;20232;-48
2021/05/26 09:33:54;;;;;;;7.77;7.00;;;;;;;12.49;61.29;100658.88;6063312;29;20233;-51
2021/05/26 09:37:16;;;;;;;8.93;8.20;;;;;;;12.48;62.01;100651.94;6054057;29;20692;-52
2021/05/26 09:40:38;;;;;;;7.93;7.13;;;;;;;12.46;60.92;100661.53;6040076;29;20229;-50
2021/05/26 09:44:00;;;;;;;7.57;6.87;;;;;;;12.30;62.42;100679.25;6061466;29;20232;-49
2021/05/26 09:47:33;;;;;;;9.07;7.83;;;;;;;12.25;61.55;100653.22;6074554;29;20502;-52
2021/05/26 09:50:54;;;;;;;7.90;6.07;;;;;;;12.23;63.18;100647.16;6364008;23;20247;-49
2021/05/26 09:54:21;;;;;;;8.53;7.67;;;;;;;11.57;70.14;100676.97;6096712;28;20835;-50
2021/05/26 09:57:48;;;;;;;12.03;7.97;;;;;;;10.67;73.89;100682.50;6101127;29;20235;-52
2021/05/26 10:01:08;;;;;;;9.17;8.07;;;;;;;10.47;73.96;100706.19;6091520;29;20245;-49
2021/05/26 10:04:29;;;;;;;10.43;9.17;;;;;;;11.42;72.03;100667.63;6090163;29;20248;-47
2021/05/26 10:08:13;;;;;;;11.00;9.73;;;;;;;11.77;70.88;100674.91;6086462;29;20273;-48
2021/05/26 10:11:37;;;;;;;11.90;10.57;;;;;;;12.02;71.26;100662.34;6110725;28;20240;-50
2021/05/26 10:15:01;;;;;;;12.37;9.57;;;;;;;11.52;70.91;100670.97;6089856;29;20229;-52
2021/05/26 10:18:22;;;;;;;13.10;8.90;;;;;;;12.00;69.91;100661.50;6092540;29;20243;-49
2021/05/26 10:21:46;;;;;;;14.93;9.03;;;;;;;12.60;66.97;100654.28;6085405;28;20240;-50
2021/05/26 10:25:12;;;;;;;9.53;6.73;;;;;;;12.92;65.17;100673.69;6093850;28;20232;-53
2021/05/26 10:28:33;;;;;;;7.70;5.63;;;;;;;12.68;64.20;100660.25;6092603;29;20237;-51
2021/05/26 10:31:54;;;;;;;6.67;5.90;;;;;;;13.57;62.51;100650.47;6094467;28;20224;-54
2021/05/26 10:35:14;;;;;;;5.03;4.53;;;;;;;12.82;61.91;100643.44;6101593;28;20485;-52
2021/05/26 10:38:59;;;;;;;7.63;5.30;;;;;;;12.90;61.75;100638.88;6102192;29;20251;-54
2021/05/26 10:42:26;;;;;;;10.27;5.00;;;;;;;13.49;61.10;100634.09;6097185;28;20499;-50
2021/05/26 10:45:49;;;;;;;5.00;3.90;;;;;;;13.93;59.78;100637.34;6098456;29;20541;-53
2021/05/26 10:49:11;;;;;;;3.73;3.43;;;;;;;14.03;56.50;100624.03;6102523;29;20653;-51
2021/05/26 10:53:15;;;;;;;4.53;3.87;;;;;;;13.73;57.05;100622.16;6089732;29;20236;-50
2021/05/26 10:56:36;;;;;;;4.13;3.83;;;;;;;13.54;56.63;100626.97;6095786;29;20944;-49
2021/05/26 11:00:22;;;;;;;3.83;3.53;;;;;;;14.27;53.99;100618.13;6094666;29;20239;-53
2021/05/26 11:03:44;;;;;;;3.10;2.83;;;;;;;14.94;52.79;100614.47;6103848;29;20236;-51
2021/05/26 11:07:18;;;;;;;4.27;3.40;;;;;;;14.91;51.34;100612.81;6091004;29;20233;-53
2021/05/26 11:10:39;;;;;;;6.40;3.63;;;;;;;14.97;51.52;100603.91;6092950;29;20236;-51
2021/05/26 11:14:00;;;;;;;3.53;3.07;;;;;;;14.52;52.53;100604.31;6099964;29;20236;-52
2021/05/26 11:17:31;;;;;;;3.40;3.10;;;;;;;13.58;53.25;100615.53;6101183;29;20260;-49
2021/05/26 11:20:51;;;;;;;3.03;2.47;;;;;;;13.69;53.02;100610.03;6097164;29;20602;-53
2021/05/26 11:24:11;;;;;;;5.17;3.90;;;;;;;13.26;58.90;100629.38;6096859;29;20228;-53
2021/05/26 11:27:33;;;;;;;5.53;3.57;;;;;;;12.68;63.21;100667.19;6094652;29;20451;-54
2021/05/26 11:31:01;;;;;;;5.33;4.40;;;;;;;12.06;67.21;100654.44;6098855;29;20508;-50
2021/05/26 11:34:25;;;;;;;3.30;2.93;;;;;;;11.73;66.71;100641.03;6093020;29;20335;-50
2021/05/26 11:37:46;;;;;;;3.40;3.10;;;;;;;12.26;66.32;100636.69;6091630;29;20327;-51
2021/05/26 11:41:16;;;;;;;3.87;3.47;;;;;;;12.64;64.28;100632.47;6104832;29;20239;-52
2021/05/26 11:44:38;;;;;;;3.47;3.13;;;;;;;12.69;63.83;100629.75;6091586;28;21087;-53
2021/05/26 11:47:59;;;;;;;4.37;3.47;;;;;;;13.16;61.63;100636.56;6100684;29;20232;-49
2021/05/26 11:51:24;;;;;;;3.97;3.67;;;;;;;12.87;63.36;100631.97;6098924;29;20243;-52
2021/05/26 11:54:52;;;;;;;4.67;4.27;;;;;;;13.91;60.95;100641.75;6095138;29;20220;-47
2021/05/26 11:58:13;;;;;;;4.30;3.97;;;;;;;14.12;61.52;100629.00;6098543;29;20463;-51
2021/05/26 12:01:35;;;;;;;5.63;5.10;;;;;;;13.40;62.00;100623.84;6095169;29;20755;-50
2021/05/26 12:04:56;;;;;;;6.47;4.93;;;;;;;13.48;63.20;100627.13;6096931;29;20232;-51
2021/05/26 12:08:18;;;;;;;5.63;5.13;;;;;;;12.92;63.93;100626.66;6091557;29;20266;-51
2021/05/26 12:11:39;;;;;;;6.50;5.63;;;;;;;13.38;63.45;100623.03;6090853;29;20247;-53
2021/05/26 12:14:59;;;;;;;7.70;5.10;;;;;;;13.16;62.57;100625.22;6092781;29;20252;-49
2021/05/26 12:18:22;;;;;;;5.53;5.03;;;;;;;13.58;61.49;100605.06;6097695;29;20277;-50
2021/05/26 12:21:46;;;;;;;6.00;4.47;;;;;;;13.14;61.51;100638.34;6096899;28;20232;-48
2021/05/26 12:25:09;;;;;;;5.60;4.50;;;;;;;13.25;59.82;100635.47;6095963;29;20239;-53
2021/05/26 12:28:30;;;;;;;6.87;4.93;;;;;;;14.21;58.53;100618.31;6094045;29;20240;-48
2021/05/26 12:31:50;;;;;;;5.37;4.70;;;;;;;14.46;55.95;100613.25;6095914;29;20461;-53
2021/05/26 12:35:14;;;;;;;4.13;3.83;;;;;;;13.70;57.27;100616.13;6099647;29;20252;-48
2021/05/26 12:38:37;;;;;;;4.93;4.40;;;;;;;14.01;56.73;100605.72;6088624;28;20231;-47
2021/05/26 12:41:58;;;;;;;6.10;5.50;;;;;;;13.59;58.47;100619.03;6098155;28;20227;-48
2021/05/26 12:45:20;;;;;;;7.13;6.43;;;;;;;14.11;57.52;100612.47;6092758;28;20579;-49
2021/05/26 12:48:41;;;;;;;9.67;5.57;;;;;;;14.38;57.12;100600.34;6088343;29;20231;-50
2021/05/26 12:52:06;;;;;;;6.93;5.43;;;;;;;14.77;55.04;100602.75;6093928;29;20251;-53
2021/05/26 12:55:27;;;;;;;6.83;6.23;;;;;;;14.75;55.04;100588.84;6095535;29;20231;-50
2021/05/26 12:58:47;;;;;;;5.73;5.27;;;;;;;14.68;55.61;100603.03;6081275;29;20343;-50
2021/05/26 13:02:09;;;;;;;5.63;5.10;;;;;;;15.22;52.75;100590.88;6085292;28;21798;-49
2021/05/26 13:05:32;;;;;;;8.43;5.47;;;;;;;16.96;48.54;100579.50;6096293;29;20267;-52
2021/05/26 13:08:57;;;;;;;7.07;4.20;;;;;;;16.58;47.67;100584.47;6086423;29;20240;-50
2021/05/26 13:12:28;;;;;;;4.23;3.83;;;;;;;17.48;45.20;100582.66;6089982;28;20618;-52
2021/05/26 13:15:54;;;;;;;3.80;3.37;;;;;;;16.78;45.56;100601.25;6082371;28;20794;-51
2021/05/26 13:19:14;;;;;;;5.77;4.40;;;;;;;16.23;47.50;100573.47;6093387;28;20528;-52
2021/05/26 13:22:35;;;;;;;4.57;3.60;;;;;;;17.20;46.17;100596.13;6081841;29;20228;-51
2021/05/26 13:25:57;;;;;;;4.13;3.40;;;;;;;15.94;48.41;100578.00;6092289;28;20244;-48
2021/05/26 13:29:17;;;;;;;4.23;3.83;;;;;;;14.42;52.81;100587.16;6095399;29;20634;-48
2021/05/26 13:32:38;;;;;;;2.70;2.37;;;;;;;14.61;51.57;100609.34;6094011;29;20244;-51
2021/05/26 13:35:59;;;;;;;1.53;0.90;;;;;;;13.74;53.18;100608.16;6100868;29;20248;-47
2021/05/26 13:39:20;;;;;;;0.90;0.80;;;;;;;13.62;55.43;100624.16;6095920;29;20326;-47
2021/05/26 13:42:41;;;;;;;1.03;0.90;;;;;;;13.55;55.35;100618.25;6091703;29;20314;-50
2021/05/26 13:46:02;;;;;;;3.20;1.10;;;;;;;13.39;56.76;100619.50;6084011;29;20243;-54
2021/05/26 13:49:22;;;;;;;1.10;1.07;;;;;;;14.09;55.57;100602.91;6085495;29;20240;-53
2021/05/26 13:52:44;;;;;;;1.27;1.17;;;;;;;14.74;54.56;100602.84;6088257;29;20224;-51
2021/05/26 13:56:05;;;;;;;1.00;1.00;;;;;;;14.63;55.24;100599.66;6087595;28;20251;-54
2021/05/26 13:59:26;;;;;;;1.23;1.10;;;;;;;15.29;53.58;100595.00;6097602;28;20566;-53
2021/05/26 14:02:47;;;;;;;1.63;1.33;;;;;;;15.55;53.59;100583.69;6084074;28;20247;-52
2021/05/26 14:06:07;;;;;;;1.97;1.77;;;;;;;15.32;52.98;100588.84;6068656;29;20241;-52
2021/05/26 14:09:28;;;;;;;1.70;1.53;;;;;;;16.37;50.95;100565.09;6081337;29;20709;-55
2021/05/26 14:12:50;;;;;;;6.83;3.40;;;;;;;15.33;53.02;100573.03;6090147;29;20233;-49
2021/05/26 14:16:11;;;;;;;6.93;3.23;;;;;;;15.04;52.99;100558.22;6092446;28;20318;-51
2021/05/26 14:19:32;;;;;;;3.20;2.70;;;;;;;15.40;51.96;100543.97;6086089;28;20233;-49
2021/05/26 14:22:54;;;;;;;3.63;2.53;;;;;;;15.12;52.91;100544.84;6091938;28;20237;-51
2021/05/26 14:26:14;;;;;;;2.00;1.90;;;;;;;14.65;51.50;100549.81;6096271;29;20335;-52
2021/05/26 14:29:35;;;;;;;2.20;1.93;;;;;;;14.82;51.33;100541.47;6075358;29;20316;-50
2021/05/26 14:32:56;;;;;;;2.00;1.90;;;;;;;14.33;52.51;100549.84;6099039;28;20236;-54
2021/05/26 14:36:19;;;;;;;2.73;1.90;;;;;;;14.96;51.10;100554.97;6099675;29;20243;-51
2021/05/26 14:39:41;;;;;;;2.20;2.00;;;;;;;15.05;52.09;100567.81;6099427;29;20244;-51
2021/05/26 14:43:08;;;;;;;2.60;1.50;;;;;;;14.88;53.30;100568.34;6097672;29;20590;-54
2021/05/26 14:46:29;;;;;;;0.93;0.90;;;;;;;14.23;56.45;100571.97;6096318;29;20264;-55
2021/05/26 14:49:50;;;;;;;1.87;1.70;;;;;;;13.98;58.14;100570.03;6103390;29;20227;-52
2021/05/26 14:53:10;;;;;;;1.80;1.70;;;;;;;13.38;59.40;100563.72;6105004;28;20240;-50
2021/05/26 14:56:31;;;;;;;2.10;1.77;;;;;;;13.62;59.51;100565.75;6097696;29;20247;-48
2021/05/26 14:59:52;;;;;;;3.13;1.67;;;;;;;13.96;59.51;100548.25;6089448;29;20251;-50
2021/05/26 15:03:13;;;;;;;1.90;1.80;;;;;;;14.24;57.61;100568.44;6098947;29;20423;-50
2021/05/26 15:06:34;;;;;;;2.10;1.73;;;;;;;14.99;55.59;100559.28;6099909;28;20315;-51
2021/05/26 15:09:54;;;;;;;1.30;1.20;;;;;;;14.73;56.22;100556.56;6093308;28;20621;-58
2021/05/26 15:13:16;;;;;;;2.50;1.60;;;;;;;15.31;55.62;100560.88;6095831;29;20339;-59
2021/05/26 15:16:36;;;;;;;8.77;2.67;;;;;;;15.08;55.88;100575.59;6086073;29;20539;-58
2021/05/26 15:19:56;;;;;;;2.73;1.73;;;;;;;15.75;52.89;100556.78;6090672;28;20606;-59
2021/05/26 15:23:18;;;;;;;2.70;1.77;;;;;;;15.82;54.52;100541.69;6075972;28;20795;-52
2021/05/26 15:26:39;;;;;;;2.33;1.33;;;;;;;14.80;50.33;100579.97;6078899;29;20605;-48
2021/05/26 15:29:59;;;;;;;3.23;1.03;;;;;;;14.94;49.02;100552.41;6094605;28;20229;-53
2021/05/26 15:33:20;;;;;;;1.63;1.17;;;;;;;14.85;49.01;100543.97;6088556;29;20236;-52
2021/05/26 15:36:41;;;;;;;3.53;0.90;;;;;;;14.84;48.82;100545.75;6080591;29;20263;-52
2021/05/26 15:40:03;;;;;;;1.47;1.30;;;;;;;13.97;50.44;100554.34;6090200;29;20240;-50
2021/05/26 15:43:25;;;;;;;1.27;1.07;;;;;;;14.38;49.95;100553.19;6087476;29;20335;-54